This is the latest recevied weather packets stored in our database for station/object I1SXT-13. If no packets are shown the sender has not sent any weather packets the latest 10 day(s).
| Time | Temp. | Humidity | Pressure | Rain* | Wind** | Luminosity | Snow |
|---|---|---|---|---|---|---|---|
| 1777836270 | 13.89° C | 76% | 1019.5 hPa | 0 mm | - | - | - |
| 1777834764 | 14.44° C | 74% | 1019.5 hPa | 0 mm | - | - | - |
| 1777831765 | 15° C | 73% | 1019.2 hPa | 0 mm | - | - | - |
| 1777828469 | 17.78° C | 60% | 1019.9 hPa | 0 mm | - | - | - |
| 1777828165 | 17.78° C | 57% | 1019.5 hPa | 0 mm | - | - | - |
| 1777825470 | 18.33° C | 50% | 1020 hPa | 0 mm | - | - | - |
| 1777825166 | 18.33° C | 53% | 1019.5 hPa | 0 mm | - | - | - |
| 1777824565 | 18.89° C | 50% | 1019.5 hPa | 0 mm | - | - | - |
| 1777821566 | 20° C | 53% | 1019.2 hPa | 0 mm | - | - | - |
| 1777818567 | 21.11° C | 50% | 1020.5 hPa | 0 mm | - | - | - |
| 1777817966 | 21.11° C | 51% | 1019.8 hPa | 0 mm | - | - | - |
| 1777815264 | 19.44° C | 62% | 1021.5 hPa | 0 mm | - | - | - |
| 1777809570 | 21.11° C | 62% | 1022.5 hPa | 0 mm | - | - | - |
| 1777807167 | 20° C | 61% | 1022.5 hPa | 0 mm | - | - | - |
| 1777806566 | 19.44° C | 61% | 1022.4 hPa | 0 mm | - | - | - |
| 1777802965 | 18.33° C | 66% | 1022.6 hPa | 0 mm | - | - | - |
| 1777802364 | 18.33° C | 66% | 1022.9 hPa | 0 mm | - | - | - |
| 1777800864 | 18.89° C | 66% | 1022.1 hPa | 0 mm | - | - | - |
| 1777800567 | 18.89° C | 67% | 1021.5 hPa | 0 mm | - | - | - |
| 1777800269 | 18.33° C | 67% | 1021.8 hPa | 0 mm | - | - | - |
| 1777799966 | 18.33° C | 67% | 1021.8 hPa | 0 mm | - | - | - |
| 1777799668 | 18.33° C | 67% | 1021.6 hPa | 0 mm | - | - | - |
| 1777799364 | 18.33° C | 66% | 1022.6 hPa | 0 mm | - | - | - |
| 1777799067 | 18.33° C | 67% | 1022.4 hPa | 0 mm | - | - | - |
| 1777798770 | 17.78° C | 67% | 1021.9 hPa | 0 mm | - | - | - |
* Rain since midnight (hover to see other rain measurements)
** Current wind speed in m/s (hover to see current wind gust speed)